Time;durP1;ratioP1;P1;durP2;ratioP2;P2;SDS_P1;SDS_P2;PMS_P1;PMS_P2;Temp;Humidity;BMP_temperature;BMP_pressure;BME280_temperature;BME280_humidity;BME280_pressure;Samples;Min_cycle;Max_cycle;Signal;HPM_P1;HPM_P2
2021/11/01 00:01:27;;;;;;;9.43;6.05;;;8.90;77.50;;;;;;5110241;28;20201;-66
2021/11/01 00:04:04;;;;;;;8.15;5.60;;;8.90;76.20;;;;;;5109680;28;20181;-67
2021/11/01 00:06:32;;;;;;;8.10;5.63;;;8.80;75.70;;;;;;5106845;28;20652;-66
2021/11/01 00:09:04;;;;;;;7.63;6.30;;;8.80;75.60;;;;;;5109616;28;20189;-66
2021/11/01 00:11:34;;;;;;;7.75;6.68;;;8.80;75.40;;;;;;5109974;28;20193;-66
2021/11/01 00:14:06;;;;;;;7.53;6.15;;;8.80;74.90;;;;;;5112362;28;20308;-65
2021/11/01 00:16:38;;;;;;;9.55;6.68;;;8.80;75.10;;;;;;5112621;28;20212;-67
2021/11/01 00:19:19;;;;;;;9.90;6.35;;;8.70;75.40;;;;;;5112314;28;20696;-68
2021/11/01 00:21:46;;;;;;;5.70;5.10;;;8.70;73.00;;;;;;5112483;28;20192;-66
2021/11/01 00:24:27;;;;;;;11.35;5.95;;;8.50;73.70;;;;;;5112220;28;20185;-66
2021/11/01 00:27:09;;;;;;;5.95;4.57;;;8.50;74.60;;;;;;5112201;28;20291;-68
2021/11/01 00:29:46;;;;;;;9.77;6.45;;;8.50;76.70;;;;;;5091908;28;20190;-66
2021/11/01 00:32:14;;;;;;;7.60;5.20;;;8.50;76.20;;;;;;5093802;28;20193;-65
2021/11/01 00:34:45;;;;;;;6.80;5.05;;;8.50;76.30;;;;;;5112316;28;20299;-66
2021/11/01 00:37:24;;;;;;;6.65;5.70;;;8.50;76.40;;;;;;5112043;28;20238;-65
2021/11/01 00:39:58;;;;;;;10.35;4.72;;;8.40;76.50;;;;;;5112342;28;20660;-65
2021/11/01 00:42:29;;;;;;;8.00;4.75;;;8.40;77.50;;;;;;5111881;28;20216;-65
2021/11/01 00:44:58;;;;;;;7.43;5.68;;;8.30;78.30;;;;;;5112240;28;20515;-66
2021/11/01 00:47:26;;;;;;;14.07;5.57;;;8.30;78.80;;;;;;5111760;28;20181;-66
2021/11/01 00:50:03;;;;;;;8.48;5.32;;;8.30;78.50;;;;;;5112253;28;20600;-66
2021/11/01 00:52:31;;;;;;;8.98;5.68;;;8.40;78.70;;;;;;5111751;28;20188;-66
2021/11/01 00:55:06;;;;;;;6.25;4.63;;;8.40;79.50;;;;;;5112119;28;20277;-66
2021/11/01 00:57:37;;;;;;;6.32;4.82;;;8.40;79.60;;;;;;5113265;28;20212;-66
2021/11/01 01:00:09;;;;;;;9.13;6.03;;;8.40;79.20;;;;;;5115904;28;20242;-65
2021/11/01 01:02:50;;;;;;;6.03;4.38;;;8.40;78.80;;;;;;5115635;28;20192;-66
2021/11/01 01:05:30;;;;;;;4.80;4.00;;;8.40;79.20;;;;;;5115655;28;20267;-66
2021/11/01 01:08:09;;;;;;;4.35;3.60;;;8.30;79.50;;;;;;5116061;28;20203;-66
2021/11/01 01:10:42;;;;;;;5.82;3.38;;;8.30;80.50;;;;;;5115540;28;20519;-66
2021/11/01 01:13:17;;;;;;;6.20;3.30;;;8.20;81.30;;;;;;5116036;28;20268;-66
2021/11/01 01:15:56;;;;;;;4.50;3.05;;;8.20;82.00;;;;;;5115076;28;20269;-66
2021/11/01 01:18:36;;;;;;;5.13;3.40;;;8.20;81.30;;;;;;5135261;27;20278;-66
2021/11/01 01:23:52;;;;;;;4.80;3.35;;;8.30;81.30;;;;;;5117835;27;20193;-66
2021/11/01 01:26:23;;;;;;;5.05;3.90;;;8.30;81.60;;;;;;5115549;28;20262;-66
2021/11/01 01:29:05;;;;;;;4.25;3.20;;;8.30;80.60;;;;;;5115135;28;20232;-66
2021/11/01 01:31:36;;;;;;;5.57;3.70;;;8.30;80.60;;;;;;5115604;28;20722;-66
2021/11/01 01:34:05;;;;;;;5.30;3.70;;;8.30;81.30;;;;;;5114812;28;20212;-67
2021/11/01 01:36:40;;;;;;;4.60;2.53;;;8.30;80.40;;;;;;5115514;27;20189;-67
2021/11/01 01:39:10;;;;;;;6.03;3.35;;;8.30;82.00;;;;;;5114865;28;20188;-66
2021/11/01 01:41:52;;;;;;;3.13;2.33;;;8.30;81.70;;;;;;5115211;28;20650;-67
2021/11/01 01:44:27;;;;;;;4.72;2.78;;;8.30;80.50;;;;;;5114570;28;20257;-66
2021/11/01 01:46:59;;;;;;;4.22;2.95;;;8.30;80.60;;;;;;5114962;28;20188;-66
2021/11/01 01:49:39;;;;;;;5.15;3.42;;;8.30;80.50;;;;;;5114808;28;20188;-66
2021/11/01 01:52:11;;;;;;;3.70;2.85;;;8.30;81.20;;;;;;5114139;28;20216;-66
2021/11/01 01:54:43;;;;;;;4.43;4.00;;;8.30;81.60;;;;;;5115013;28;20678;-67
2021/11/01 01:57:13;;;;;;;4.28;2.80;;;8.30;81.50;;;;;;5114378;27;20288;-66
2021/11/01 01:59:44;;;;;;;4.40;2.90;;;8.10;82.20;;;;;;5114579;28;20192;-66
2021/11/01 02:02:16;;;;;;;6.63;3.67;;;8.10;81.80;;;;;;5114536;28;20244;-66
2021/11/01 02:04:46;;;;;;;6.80;3.70;;;8.10;82.40;;;;;;5114746;28;20185;-66
2021/11/01 02:07:28;;;;;;;4.18;3.25;;;8.10;82.20;;;;;;5114432;28;20611;-65
2021/11/01 02:10:07;;;;;;;5.45;3.50;;;8.20;82.10;;;;;;5113489;28;20188;-65
2021/11/01 02:12:51;;;;;;;5.25;3.65;;;8.20;81.80;;;;;;5114630;28;20196;-66
2021/11/01 02:15:22;;;;;;;4.75;3.55;;;8.20;81.20;;;;;;5114411;28;20718;-66
2021/11/01 02:17:57;;;;;;;4.45;3.30;;;8.20;80.90;;;;;;5114813;28;20199;-66
2021/11/01 02:20:37;;;;;;;4.30;2.70;;;8.20;80.10;;;;;;5094333;28;20556;-65
2021/11/01 02:23:14;;;;;;;4.13;2.60;;;8.10;79.00;;;;;;5094683;28;20203;-66
2021/11/01 02:25:50;;;;;;;6.60;3.28;;;8.00;78.90;;;;;;5114656;28;20196;-66
2021/11/01 02:28:29;;;;;;;5.57;3.75;;;8.00;78.70;;;;;;5114199;28;20195;-67
2021/11/01 02:31:00;;;;;;;6.07;3.90;;;7.90;78.80;;;;;;5114738;28;20230;-66
2021/11/01 02:33:38;;;;;;;3.78;3.10;;;7.90;78.90;;;;;;5113844;28;20279;-65
2021/11/01 02:36:20;;;;;;;4.80;3.42;;;7.80;79.90;;;;;;5114419;28;20311;-69
2021/11/01 02:38:55;;;;;;;4.75;3.17;;;7.80;78.90;;;;;;5113995;28;20215;-65
2021/11/01 02:41:33;;;;;;;4.55;3.15;;;7.70;78.30;;;;;;5114330;28;20192;-66
2021/11/01 02:44:05;;;;;;;4.10;3.17;;;7.70;79.00;;;;;;5113740;28;20189;-65
2021/11/01 02:46:39;;;;;;;5.28;2.20;;;7.70;78.80;;;;;;5114369;28;20196;-65
2021/11/01 02:49:26;;;;;;;3.88;2.60;;;7.60;78.20;;;;;;5113915;28;20192;-65
2021/11/01 02:52:08;;;;;;;5.20;3.55;;;7.60;78.70;;;;;;5113297;28;20221;-66
2021/11/01 02:54:40;;;;;;;3.90;2.78;;;7.60;79.40;;;;;;5113843;28;20227;-66
2021/11/01 02:57:12;;;;;;;4.65;3.08;;;7.60;80.10;;;;;;5113627;28;20547;-66
2021/11/01 02:59:41;;;;;;;3.95;2.67;;;7.70;80.30;;;;;;5112999;27;20189;-66
2021/11/01 03:02:14;;;;;;;4.53;2.95;;;7.70;80.30;;;;;;5113554;28;20189;-66
2021/11/01 03:04:58;;;;;;;4.45;3.65;;;7.70;82.00;;;;;;5113781;28;20217;-65
2021/11/01 03:07:37;;;;;;;4.03;3.00;;;7.60;82.10;;;;;;5113431;28;20196;-66
2021/11/01 03:10:10;;;;;;;3.92;2.58;;;7.50;81.80;;;;;;5113852;28;20275;-66
2021/11/01 03:12:48;;;;;;;3.63;2.67;;;7.50;82.70;;;;;;5113255;28;20566;-67
2021/11/01 03:15:25;;;;;;;3.97;2.42;;;7.50;83.00;;;;;;5113599;28;20671;-66
2021/11/01 03:17:59;;;;;;;4.20;3.30;;;7.50;82.80;;;;;;5113203;28;20189;-65
2021/11/01 03:20:34;;;;;;;4.00;3.50;;;7.60;82.30;;;;;;5113036;28;20194;-65
2021/11/01 03:23:16;;;;;;;4.32;2.65;;;7.50;81.60;;;;;;5112698;28;20719;-66
2021/11/01 03:25:52;;;;;;;3.28;2.58;;;7.50;82.30;;;;;;5113263;28;20189;-66
2021/11/01 03:28:31;;;;;;;47.92;32.38;;;7.40;82.50;;;;;;5113001;28;20230;-66
2021/11/01 03:31:00;;;;;;;9.25;6.55;;;7.40;83.30;;;;;;5113320;28;20193;-66
2021/11/01 03:33:37;;;;;;;3.90;2.85;;;7.50;84.10;;;;;;5112770;28;20195;-65
2021/11/01 03:36:16;;;;;;;3.80;2.50;;;7.50;84.10;;;;;;5113104;28;20546;-65
2021/11/01 03:38:53;;;;;;;4.60;3.25;;;7.50;83.50;;;;;;5112573;28;20188;-65
2021/11/01 03:41:25;;;;;;;4.85;2.75;;;7.50;83.50;;;;;;5112887;28;20193;-68
2021/11/01 03:43:59;;;;;;;4.32;3.03;;;7.40;83.30;;;;;;5110099;28;20192;-66
2021/11/01 03:46:40;;;;;;;3.47;2.60;;;7.50;83.80;;;;;;5112821;28;20188;-66
2021/11/01 03:49:11;;;;;;;6.15;2.90;;;7.50;84.20;;;;;;5092600;28;20195;-65
2021/11/01 03:51:47;;;;;;;4.68;3.30;;;7.50;84.30;;;;;;5105848;28;20217;-66
2021/11/01 03:54:19;;;;;;;4.22;2.47;;;7.50;83.90;;;;;;5113181;28;20552;-65
2021/11/01 03:56:57;;;;;;;7.22;3.50;;;7.60;84.40;;;;;;5112454;28;20230;-65
2021/11/01 03:59:27;;;;;;;4.47;3.28;;;7.50;84.20;;;;;;5112928;28;20275;-65
2021/11/01 04:02:12;;;;;;;11.32;2.63;;;7.40;85.10;;;;;;5112549;28;20189;-65
2021/11/01 04:04:49;;;;;;;4.45;2.95;;;7.40;85.40;;;;;;5113210;28;20228;-65
2021/11/01 04:07:22;;;;;;;6.10;3.60;;;7.50;85.00;;;;;;5112720;28;20188;-66
2021/11/01 04:09:58;;;;;;;7.53;4.97;;;7.40;84.10;;;;;;5113095;28;20195;-65
2021/11/01 04:12:37;;;;;;;8.48;3.88;;;7.40;83.10;;;;;;5112415;28;20233;-65
2021/11/01 04:15:11;;;;;;;4.22;3.10;;;7.40;83.30;;;;;;5112971;28;20269;-65
2021/11/01 04:17:45;;;;;;;5.38;3.70;;;7.40;83.80;;;;;;5112277;28;20234;-65
2021/11/01 04:20:31;;;;;;;5.57;3.63;;;7.30;83.70;;;;;;5113040;28;20193;-65
2021/11/01 04:23:07;;;;;;;5.80;3.80;;;7.30;84.20;;;;;;5092633;28;20539;-65
2021/11/01 04:25:41;;;;;;;4.07;3.25;;;7.40;83.80;;;;;;5092454;28;20188;-65
2021/11/01 04:28:17;;;;;;;6.20;4.20;;;7.40;83.50;;;;;;5092126;28;20279;-66
2021/11/01 04:30:56;;;;;;;4.28;3.53;;;7.40;82.90;;;;;;5093205;28;20193;-66
2021/11/01 04:33:30;;;;;;;4.95;3.55;;;7.30;83.30;;;;;;5115966;28;20644;-66
2021/11/01 04:36:00;;;;;;;4.65;3.05;;;7.30;83.30;;;;;;5116536;28;20625;-66
2021/11/01 04:38:44;;;;;;;4.65;3.63;;;7.30;82.00;;;;;;5117177;28;20192;-66
2021/11/01 04:41:19;;;;;;;5.05;3.25;;;7.30;81.50;;;;;;5116571;28;20184;-66
2021/11/01 04:44:19;;;;;;;5.57;2.78;;;7.20;80.60;;;;;;5116959;28;20276;-66
2021/11/01 04:55:25;;;;;;;4.30;3.40;;;7.00;80.20;;;;;;5115972;28;20215;-66
2021/11/01 04:58:03;;;;;;;3.58;2.40;;;7.00;80.40;;;;;;5116830;28;20193;-66
2021/11/01 05:00:39;;;;;;;4.65;3.40;;;7.00;80.70;;;;;;5116389;28;20646;-66
2021/11/01 05:03:21;;;;;;;5.22;3.40;;;7.00;81.00;;;;;;5116400;28;20224;-67
2021/11/01 05:05:51;;;;;;;3.75;2.53;;;7.00;81.50;;;;;;5116112;28;20215;-66
2021/11/01 05:08:32;;;;;;;4.72;3.53;;;7.00;81.10;;;;;;5116415;27;20189;-66
2021/11/01 05:11:12;;;;;;;3.75;2.53;;;7.00;79.60;;;;;;5116161;28;20192;-66
2021/11/01 05:13:45;;;;;;;4.28;2.75;;;7.00;79.50;;;;;;5116365;28;20189;-65
2021/11/01 05:16:20;;;;;;;5.85;3.33;;;7.00;80.00;;;;;;5116117;28;20595;-66
2021/11/01 05:19:01;;;;;;;4.30;2.92;;;6.90;80.40;;;;;;5116242;28;20647;-66
2021/11/01 05:22:01;;;;;;;5.38;3.50;;;6.90;80.70;;;;;;5116431;27;20189;-66
2021/11/01 05:24:41;;;;;;;7.80;4.10;;;6.80;80.40;;;;;;5136759;27;20204;-66
2021/11/01 05:30:21;;;;;;;3.60;2.60;;;6.70;80.90;;;;;;5093588;28;20192;-66
2021/11/01 05:32:59;;;;;;;3.97;2.95;;;6.80;81.20;;;;;;5101123;28;20269;-66
2021/11/01 05:35:34;;;;;;;4.10;3.00;;;6.80;81.30;;;;;;5115905;28;20221;-66
2021/11/01 05:38:11;;;;;;;8.65;3.72;;;6.80;81.20;;;;;;5115488;28;20237;-66
2021/11/01 05:40:50;;;;;;;4.38;3.22;;;6.80;81.70;;;;;;5116052;28;20192;-66
2021/11/01 05:43:21;;;;;;;6.00;3.30;;;6.80;81.50;;;;;;5115343;28;20192;-66
2021/11/01 05:45:52;;;;;;;4.32;3.30;;;6.90;81.60;;;;;;5115745;28;20228;-66
2021/11/01 05:48:25;;;;;;;5.55;3.67;;;6.90;81.30;;;;;;5115544;28;20242;-66
2021/11/01 05:50:55;;;;;;;4.57;3.15;;;6.90;80.60;;;;;;5114727;28;20192;-66
2021/11/01 05:53:28;;;;;;;4.20;3.33;;;6.90;79.90;;;;;;5115447;28;20280;-66
2021/11/01 05:56:14;;;;;;;3.78;3.08;;;6.90;80.00;;;;;;5115310;28;20231;-66
2021/11/01 05:59:06;;;;;;;4.63;3.28;;;6.90;80.10;;;;;;5115619;28;20572;-66
2021/11/01 06:04:33;;;;;;;5.35;4.05;;;6.90;80.80;;;;;;5113470;28;20192;-66
2021/11/01 06:07:16;;;;;;;6.07;4.05;;;6.90;80.40;;;;;;5114938;28;20189;-66
2021/11/01 06:09:58;;;;;;;5.55;3.92;;;6.90;80.30;;;;;;5114893;28;20200;-66
2021/11/01 06:15:27;;;;;;;9.18;7.43;;;6.90;80.80;;;;;;5114870;28;20334;-66
2021/11/01 06:18:07;;;;;;;8.25;6.07;;;6.90;82.50;;;;;;5114575;28;20648;-66
2021/11/01 06:20:39;;;;;;;5.10;4.18;;;6.90;83.50;;;;;;5115312;28;20197;-66
2021/11/01 06:23:08;;;;;;;5.50;4.55;;;6.90;83.70;;;;;;5114609;28;20272;-66
2021/11/01 06:25:39;;;;;;;6.22;4.18;;;7.00;82.30;;;;;;5111268;28;20242;-66
2021/11/01 06:28:30;;;;;;;4.35;3.30;;;7.00;81.50;;;;;;5111506;28;20272;-66
2021/11/01 06:31:02;;;;;;;5.95;3.00;;;7.10;81.90;;;;;;5111514;28;20197;-66
2021/11/01 06:45:20;;;;;;;5.57;4.47;;;7.90;81.80;;;;;;5093748;28;20188;-67
2021/11/01 06:51:14;;;;;;;6.32;4.97;;;8.30;81.20;;;;;;5111688;28;20192;-66
2021/11/01 07:16:27;;;;;;;8.45;5.68;;;10.10;71.40;;;;;;5110918;28;20212;-66
2021/11/01 07:19:02;;;;;;;6.65;4.68;;;10.40;73.00;;;;;;5111345;28;20192;-66
2021/11/01 08:21:41;;;;;;;4.20;3.20;;;12.80;71.80;;;;;;5127712;28;20262;-67
2021/11/01 08:27:52;;;;;;;5.45;3.30;;;12.70;71.60;;;;;;5073898;28;20264;-66
2021/11/01 08:36:32;;;;;;;3.88;3.10;;;12.60;73.20;;;;;;5115995;27;20220;-66
2021/11/01 08:39:18;;;;;;;4.43;3.65;;;12.50;73.30;;;;;;5110667;28;20185;-66
2021/11/01 08:42:14;;;;;;;6.45;3.00;;;12.60;74.00;;;;;;5111491;28;20232;-66
2021/11/01 08:45:08;;;;;;;3.88;2.80;;;12.60;74.10;;;;;;5113509;28;20192;-66
2021/11/01 09:05:01;;;;;;;6.38;3.22;;;12.40;75.80;;;;;;5113167;28;20212;-66
2021/11/01 09:07:44;;;;;;;6.30;4.07;;;12.40;76.10;;;;;;5110219;28;20208;-66
2021/11/01 09:13:24;;;;;;;14.68;9.55;;;12.30;76.60;;;;;;5112507;28;20196;-66
2021/11/01 09:18:53;;;;;;;14.43;10.85;;;12.20;78.40;;;;;;5079371;28;20207;-66
2021/11/01 09:21:41;;;;;;;11.73;10.18;;;12.10;79.10;;;;;;5105560;28;20238;-66
2021/11/01 09:27:03;;;;;;;9.40;8.50;;;12.00;80.40;;;;;;5134893;27;20212;-66
2021/11/01 09:29:48;;;;;;;8.63;7.10;;;12.00;81.10;;;;;;5104960;27;20578;-66
2021/11/01 09:41:04;;;;;;;10.25;7.57;;;12.10;83.20;;;;;;5093727;28;20208;-66
2021/11/01 09:43:32;;;;;;;13.93;7.50;;;12.10;83.80;;;;;;5110837;28;20584;-66
2021/11/01 09:46:01;;;;;;;9.85;7.65;;;12.10;84.70;;;;;;5114627;28;20225;-66
2021/11/01 09:48:28;;;;;;;8.60;7.38;;;12.10;85.20;;;;;;5102151;28;20200;-66
2021/11/01 09:50:56;;;;;;;8.52;7.50;;;12.10;85.60;;;;;;5108699;28;20290;-67
2021/11/01 09:53:29;;;;;;;10.07;8.02;;;12.20;85.90;;;;;;5113792;28;20288;-68
2021/11/01 09:56:18;;;;;;;9.30;8.13;;;12.20;87.10;;;;;;5113463;28;20549;-66
2021/11/01 10:01:31;;;;;;;13.15;9.77;;;12.30;87.50;;;;;;5104819;28;20219;-67
2021/11/01 10:03:59;;;;;;;13.15;10.27;;;12.40;88.10;;;;;;5112467;28;20193;-66
2021/11/01 10:06:31;;;;;;;17.98;15.77;;;12.40;88.30;;;;;;5110727;27;20989;-66
2021/11/01 10:09:02;;;;;;;16.67;14.98;;;12.40;88.40;;;;;;5111504;28;20188;-67
2021/11/01 10:11:33;;;;;;;13.82;11.70;;;12.30;89.30;;;;;;5108520;28;20204;-66
2021/11/01 10:14:03;;;;;;;11.35;8.75;;;12.30;88.80;;;;;;5112833;28;20223;-66
2021/11/01 10:19:31;;;;;;;13.13;8.02;;;12.30;89.40;;;;;;5097006;28;20280;-67
2021/11/01 10:22:03;;;;;;;7.55;4.50;;;12.30;89.80;;;;;;5103664;28;20216;-68
2021/11/01 10:24:40;;;;;;;6.07;4.53;;;12.30;89.90;;;;;;5104006;28;20723;-66
2021/11/01 10:27:08;;;;;;;5.75;4.32;;;12.30;90.10;;;;;;5106257;28;20720;-66
2021/11/01 10:29:53;;;;;;;6.90;4.80;;;12.40;90.00;;;;;;5111182;28;20245;-65
2021/11/01 10:32:38;;;;;;;8.02;6.35;;;12.40;90.30;;;;;;5108059;28;20694;-65
2021/11/01 10:35:29;;;;;;;8.75;6.88;;;12.40;90.30;;;;;;5107140;28;20582;-65
2021/11/01 10:38:19;;;;;;;17.25;13.00;;;12.40;90.30;;;;;;5105365;28;20797;-65
2021/11/01 10:40:57;;;;;;;17.40;15.60;;;12.40;90.60;;;;;;5107343;28;20231;-65
2021/11/01 11:11:59;;;;;;;16.10;11.98;;;13.00;86.10;;;;;;5052892;28;20288;-70
2021/11/01 11:14:35;;;;;;;4.95;4.55;;;13.00;86.60;;;;;;5104162;28;20654;-66
2021/11/01 11:17:20;;;;;;;3.35;2.25;;;13.00;86.60;;;;;;5110843;28;20250;-66
2021/11/01 11:26:08;;;;;;;25.13;17.20;;;13.00;87.80;;;;;;5110665;28;20241;-66
2021/11/01 11:40:40;;;;;;;14.23;8.60;;;13.00;87.90;;;;;;5108773;28;20196;-66
2021/11/01 11:43:28;;;;;;;45.65;32.30;;;13.00;88.30;;;;;;5110220;28;20550;-67
2021/11/01 11:48:49;;;;;;;9.48;8.25;;;13.00;88.20;;;;;;5109718;28;20285;-67
2021/11/01 11:51:25;;;;;;;3.50;2.97;;;13.00;88.20;;;;;;5110543;28;20204;-66
2021/11/01 11:54:00;;;;;;;7.47;5.45;;;13.00;88.30;;;;;;5109474;28;20207;-66
2021/11/01 11:56:38;;;;;;;4.28;1.75;;;13.00;88.10;;;;;;5110569;28;20650;-67
2021/11/01 11:59:09;;;;;;;4.60;3.05;;;12.90;87.90;;;;;;5108639;28;20200;-66
2021/11/01 12:01:52;;;;;;;4.82;4.30;;;12.90;88.10;;;;;;5110645;28;20243;-67
2021/11/01 12:04:25;;;;;;;2.00;1.40;;;12.90;88.10;;;;;;5110031;28;20242;-67
2021/11/01 12:07:04;;;;;;;1.90;1.20;;;12.90;87.50;;;;;;5110551;28;20262;-66
2021/11/01 12:09:37;;;;;;;2.35;1.55;;;12.80;86.80;;;;;;5103172;28;20221;-67
2021/11/01 12:17:54;;;;;;;3.10;2.15;;;12.80;86.40;;;;;;5111264;28;20196;-66
2021/11/01 12:20:24;;;;;;;3.42;1.45;;;12.70;86.50;;;;;;5114073;28;20188;-67
2021/11/01 12:23:02;;;;;;;2.80;1.40;;;12.70;86.60;;;;;;5109951;28;20241;-66
2021/11/01 12:25:39;;;;;;;2.53;1.60;;;12.70;86.60;;;;;;5114354;28;20193;-67
2021/11/01 12:28:16;;;;;;;6.72;6.13;;;12.70;86.60;;;;;;5112581;28;20216;-67
2021/11/01 12:30:50;;;;;;;5.65;3.10;;;12.60;87.30;;;;;;5114593;28;20181;-66
2021/11/01 12:33:19;;;;;;;2.90;2.28;;;12.60;86.50;;;;;;5112261;28;20228;-66
2021/11/01 12:35:53;;;;;;;5.15;2.10;;;12.60;87.30;;;;;;5114099;28;20575;-66
2021/11/01 12:38:35;;;;;;;3.53;2.20;;;12.40;86.20;;;;;;5109794;28;20359;-67
2021/11/01 12:41:13;;;;;;;2.85;1.90;;;12.40;87.40;;;;;;5112000;28;20193;-67
2021/11/01 12:49:53;;;;;;;1.83;0.90;;;12.30;85.60;;;;;;5114301;28;20776;-67
2021/11/01 12:57:54;;;;;;;4.05;1.38;;;12.40;84.80;;;;;;5113070;28;20688;-66
2021/11/01 13:00:21;;;;;;;2.63;1.10;;;12.50;85.00;;;;;;5113547;28;20193;-66
2021/11/01 13:02:50;;;;;;;2.20;1.30;;;12.50;84.20;;;;;;5106536;28;20632;-66
2021/11/01 13:05:23;;;;;;;2.67;1.30;;;12.50;83.70;;;;;;5111086;28;20575;-66
2021/11/01 13:07:56;;;;;;;4.97;3.70;;;12.50;83.00;;;;;;5112228;28;20212;-67
2021/11/01 13:10:42;;;;;;;2.17;1.23;;;12.50;83.10;;;;;;5110229;28;20232;-66
2021/11/01 13:18:51;;;;;;;2.60;1.70;;;12.40;82.70;;;;;;5112760;28;20212;-66
2021/11/01 13:21:23;;;;;;;2.17;1.30;;;12.30;81.90;;;;;;5112438;28;20208;-67
2021/11/01 13:24:00;;;;;;;1.75;0.90;;;12.20;82.30;;;;;;5109152;28;20658;-67
2021/11/01 13:35:27;;;;;;;2.05;1.27;;;12.00;83.20;;;;;;5097491;27;20196;-66
2021/11/01 13:38:01;;;;;;;5.32;3.65;;;11.90;83.20;;;;;;5115729;27;20227;-67
2021/11/01 13:40:37;;;;;;;1.80;0.95;;;11.90;83.20;;;;;;5111389;27;20242;-66
2021/11/01 13:43:06;;;;;;;2.25;1.08;;;11.80;83.30;;;;;;5112054;27;20223;-66
2021/11/01 13:45:34;;;;;;;2.75;1.00;;;11.70;82.90;;;;;;5110959;27;20647;-66
2021/11/01 13:48:06;;;;;;;3.63;2.08;;;11.70;83.10;;;;;;5113351;27;20227;-66
2021/11/01 13:50:39;;;;;;;2.53;1.73;;;11.60;82.30;;;;;;5110713;27;20193;-67
2021/11/01 13:53:09;;;;;;;4.35;1.40;;;11.50;82.30;;;;;;5106471;27;20565;-67
2021/11/01 13:55:47;;;;;;;2.25;1.17;;;11.50;83.00;;;;;;5114069;27;21233;-66
2021/11/01 13:58:36;;;;;;;2.70;1.50;;;11.50;83.40;;;;;;5109655;27;20495;-66
2021/11/01 14:01:37;;;;;;;2.00;1.27;;;11.50;83.90;;;;;;5115828;27;20200;-66
2021/11/01 14:12:41;;;;;;;5.97;3.47;;;11.30;84.20;;;;;;5114069;27;20243;-66
2021/11/01 14:15:16;;;;;;;5.00;2.92;;;11.30;84.60;;;;;;5114915;27;20189;-66
2021/11/01 14:20:37;;;;;;;3.10;1.65;;;11.20;84.90;;;;;;5114565;27;20189;-68
2021/11/01 14:28:56;;;;;;;2.80;1.80;;;11.20;85.20;;;;;;5113934;27;20751;-67
2021/11/01 15:13:48;;;;;;;4.43;2.95;;;10.70;84.70;;;;;;5100101;27;20269;-66
2021/11/01 15:16:39;;;;;;;5.43;2.45;;;10.70;84.40;;;;;;5120430;27;20193;-66
2021/11/01 15:19:40;;;;;;;4.95;1.90;;;10.70;84.90;;;;;;5112720;27;20292;-66
2021/11/01 15:25:21;;;;;;;5.22;2.80;;;10.60;84.40;;;;;;5109467;28;20567;-66
2021/11/01 15:28:15;;;;;;;5.72;2.90;;;10.60;85.00;;;;;;5111694;28;20220;-66
2021/11/01 15:31:09;;;;;;;6.55;3.45;;;10.60;85.50;;;;;;5118855;28;20188;-67
2021/11/01 16:16:01;;;;;;;6.25;4.72;;;10.20;90.10;;;;;;5123579;27;20204;-66
2021/11/01 16:18:30;;;;;;;10.88;6.35;;;10.10;90.00;;;;;;5113687;27;20215;-69
2021/11/01 16:20:58;;;;;;;9.70;7.30;;;10.10;90.60;;;;;;5121114;27;20193;-66
2021/11/01 16:23:35;;;;;;;9.68;8.48;;;10.10;90.40;;;;;;5120305;27;20593;-67
2021/11/01 16:26:12;;;;;;;7.25;6.55;;;10.10;90.60;;;;;;5120333;27;20216;-66
2021/11/01 16:28:40;;;;;;;8.98;5.18;;;10.10;90.60;;;;;;5115638;27;20239;-66
2021/11/01 16:31:29;;;;;;;7.60;6.05;;;10.10;90.70;;;;;;5123598;27;20591;-66
2021/11/01 16:34:11;;;;;;;7.30;5.70;;;10.10;90.80;;;;;;5118015;27;20231;-66
2021/11/01 16:37:01;;;;;;;6.97;4.90;;;10.00;90.80;;;;;;5115957;27;20316;-67
2021/11/01 16:39:44;;;;;;;7.43;6.05;;;10.10;91.00;;;;;;5120747;27;20643;-67
2021/11/01 16:42:13;;;;;;;5.30;4.80;;;10.10;90.90;;;;;;5123443;27;20189;-66
2021/11/01 16:44:42;;;;;;;7.43;6.05;;;10.10;90.90;;;;;;5120389;27;20192;-67
2021/11/01 16:47:13;;;;;;;6.60;5.55;;;10.10;90.60;;;;;;5112349;27;20212;-66
2021/11/01 16:49:43;;;;;;;4.55;3.65;;;10.10;90.70;;;;;;5121416;27;20306;-66
2021/11/01 16:52:16;;;;;;;6.00;4.10;;;10.10;90.80;;;;;;5115318;27;20181;-67
2021/11/01 16:54:48;;;;;;;4.57;3.30;;;10.10;90.80;;;;;;5119138;27;20193;-68
2021/11/01 16:57:21;;;;;;;8.70;4.72;;;10.10;90.90;;;;;;5122874;27;20689;-66
2021/11/01 17:00:03;;;;;;;7.50;4.68;;;10.10;91.00;;;;;;5117542;27;20192;-66
2021/11/01 17:05:37;;;;;;;7.65;5.90;;;10.00;90.80;;;;;;5115792;27;20765;-66
2021/11/01 17:21:14;;;;;;;10.32;6.65;;;10.00;91.10;;;;;;5113738;27;20244;-67
2021/11/01 17:22:23;;;;;;;7.00;5.55;;;10.00;91.30;;;;;;5119184;27;20672;-67
2021/11/01 17:25:04;;;;;;;7.05;4.45;;;10.00;91.60;;;;;;5119364;27;20211;-66
2021/11/01 18:41:08;;;;;;;14.82;11.75;;;9.90;92.40;;;;;;5110553;28;20189;-66
2021/11/01 18:52:00;;;;;;;9.40;6.05;;;9.80;92.40;;;;;;5116279;27;20199;-66
2021/11/01 18:54:35;;;;;;;5.95;5.03;;;9.80;92.40;;;;;;5113717;27;20608;-66
2021/11/01 18:57:05;;;;;;;4.97;3.72;;;9.80;92.70;;;;;;5113890;27;20200;-66
2021/11/01 18:59:36;;;;;;;4.03;3.50;;;9.70;93.00;;;;;;5110834;28;20221;-66
2021/11/01 19:04:56;;;;;;;3.90;3.10;;;9.70;92.60;;;;;;5111192;28;20326;-67
2021/11/01 19:07:33;;;;;;;3.70;3.00;;;9.70;92.60;;;;;;5110474;28;20192;-66
2021/11/01 19:10:11;;;;;;;4.05;3.17;;;9.60;92.80;;;;;;5111274;28;20193;-66
2021/11/01 20:06:33;;;;;;;4.38;1.77;;;9.00;93.40;;;;;;5111013;28;20192;-66
2021/11/01 20:12:15;;;;;;;2.95;0.93;;;9.00;93.10;;;;;;5092053;28;20529;-66
2021/11/01 20:15:12;;;;;;;2.47;0.98;;;9.00;93.20;;;;;;5111002;28;20196;-67
2021/11/01 21:25:09;;;;;;;2.83;2.45;;;9.00;93.70;;;;;;5036499;28;20187;-67
2021/11/01 21:27:36;;;;;;;2.75;1.90;;;9.10;93.80;;;;;;5111584;28;20201;-67
2021/11/01 21:30:04;;;;;;;3.97;1.70;;;9.10;93.70;;;;;;5113153;27;20285;-67
2021/11/01 21:32:31;;;;;;;2.60;2.00;;;9.10;93.50;;;;;;5109785;28;20238;-66
2021/11/01 21:35:02;;;;;;;4.85;3.28;;;9.10;93.50;;;;;;5113466;27;20327;-67
2021/11/01 21:37:29;;;;;;;3.22;2.00;;;9.10;93.40;;;;;;5113749;28;20227;-66
2021/11/01 21:39:59;;;;;;;3.15;1.20;;;9.20;93.50;;;;;;5112540;27;20522;-67
2021/11/01 21:42:27;;;;;;;2.05;1.23;;;9.20;93.50;;;;;;5112931;28;20211;-66
2021/11/01 21:44:57;;;;;;;3.55;1.65;;;9.20;93.30;;;;;;5112619;27;20193;-69
2021/11/01 21:47:26;;;;;;;2.90;1.27;;;9.20;93.20;;;;;;5113000;28;20531;-67
2021/11/01 21:49:53;;;;;;;2.30;1.42;;;9.20;93.10;;;;;;5113253;27;20319;-67
2021/11/01 21:52:22;;;;;;;2.70;1.45;;;9.20;93.20;;;;;;5112678;27;20285;-66
2021/11/01 21:54:51;;;;;;;2.20;1.52;;;9.30;93.20;;;;;;5112416;28;20189;-66
2021/11/01 21:57:24;;;;;;;3.47;1.80;;;9.30;92.90;;;;;;5112649;27;20277;-66
2021/11/01 22:00:12;;;;;;;4.65;2.67;;;9.30;93.10;;;;;;5112458;28;20621;-66
2021/11/01 22:22:00;;;;;;;6.65;3.60;;;9.20;92.70;;;;;;5111633;27;20200;-66
2021/11/01 22:24:32;;;;;;;4.15;3.10;;;9.20;92.90;;;;;;5108523;28;20204;-66
2021/11/01 22:33:06;;;;;;;4.85;1.95;;;9.30;92.80;;;;;;5110025;28;20211;-66
2021/11/01 22:38:35;;;;;;;2.60;1.48;;;9.20;92.70;;;;;;5111899;27;20673;-66
2021/11/01 22:41:13;;;;;;;2.65;1.75;;;9.10;92.60;;;;;;5111559;28;20241;-66
2021/11/01 22:44:16;;;;;;;2.22;1.63;;;9.10;92.70;;;;;;5111330;27;20216;-66
2021/11/01 22:57:44;;;;;;;2.88;1.05;;;9.00;92.70;;;;;;5031805;28;20249;-67
2021/11/01 23:00:19;;;;;;;2.40;1.13;;;9.00;92.80;;;;;;5031753;28;20647;-67
2021/11/01 23:03:09;;;;;;;1.80;1.00;;;9.00;93.00;;;;;;5031714;28;20199;-67
2021/11/01 23:06:08;;;;;;;2.13;1.13;;;9.00;92.90;;;;;;5035116;28;20193;-67
2021/11/01 23:33:52;;;;;;;1.50;0.70;;;8.80;92.90;;;;;;4974261;28;20196;-68
2021/11/01 23:36:21;;;;;;;1.60;0.80;;;8.80;93.00;;;;;;5022990;28;20686;-67
2021/11/01 23:38:50;;;;;;;1.80;0.90;;;8.90;92.60;;;;;;5031767;28;20198;-66
2021/11/01 23:41:18;;;;;;;2.20;0.80;;;8.80;92.60;;;;;;5031573;28;20260;-66
2021/11/01 23:43:48;;;;;;;2.10;0.85;;;8.80;92.80;;;;;;5031564;28;20723;-66
2021/11/01 23:46:15;;;;;;;1.90;1.10;;;8.80;92.60;;;;;;5031529;28;20254;-67
2021/11/01 23:48:44;;;;;;;2.38;1.00;;;8.80;92.60;;;;;;5031029;28;20215;-67
2021/11/01 23:51:12;;;;;;;3.85;0.80;;;8.60;92.70;;;;;;5031547;28;20591;-68
2021/11/01 23:53:48;;;;;;;2.22;1.10;;;8.60;92.80;;;;;;5031821;28;20195;-67
2021/11/01 23:56:16;;;;;;;1.58;0.70;;;8.50;92.90;;;;;;5031781;28;20692;-66
2021/11/01 23:58:48;;;;;;;1.58;0.75;;;8.50;92.90;;;;;;5029737;28;20554;-66
